sensor_id;sensor_type;location;lat;lon;timestamp;pressure;altitude;pressure_sealevel;temperature;humidity
85130;BME280;75492;49.310;20.046;2024-02-14T00:04:07;92177.91;;;0.79;69.37
85130;BME280;75492;49.310;20.046;2024-02-14T00:09:09;92184.50;;;0.82;69.45
85130;BME280;75492;49.310;20.046;2024-02-14T00:14:11;92186.44;;;0.71;69.83
85130;BME280;75492;49.310;20.046;2024-02-14T00:19:12;92188.25;;;0.76;70.14
85130;BME280;75492;49.310;20.046;2024-02-14T00:24:15;92197.16;;;0.85;69.63
85130;BME280;75492;49.310;20.046;2024-02-14T00:29:16;92203.03;;;0.77;68.41
85130;BME280;75492;49.310;20.046;2024-02-14T00:34:17;92219.94;;;0.81;68.64
85130;BME280;75492;49.310;20.046;2024-02-14T00:39:20;92216.75;;;0.84;69.36
85130;BME280;75492;49.310;20.046;2024-02-14T00:44:21;92209.41;;;0.76;69.89
85130;BME280;75492;49.310;20.046;2024-02-14T00:49:23;92212.50;;;0.88;69.41
85130;BME280;75492;49.310;20.046;2024-02-14T00:54:26;92214.22;;;0.68;70.22
85130;BME280;75492;49.310;20.046;2024-02-14T00:59:27;92213.59;;;0.77;69.51
85130;BME280;75492;49.310;20.046;2024-02-14T01:04:28;92209.28;;;0.91;70.08
85130;BME280;75492;49.310;20.046;2024-02-14T01:09:31;92205.38;;;0.83;70.90
85130;BME280;75492;49.310;20.046;2024-02-14T01:14:32;92204.69;;;0.67;69.47
85130;BME280;75492;49.310;20.046;2024-02-14T01:19:34;92204.66;;;0.73;69.61
85130;BME280;75492;49.310;20.046;2024-02-14T01:24:37;92212.31;;;0.74;68.28
85130;BME280;75492;49.310;20.046;2024-02-14T01:29:38;92212.50;;;0.83;67.56
85130;BME280;75492;49.310;20.046;2024-02-14T01:34:39;92211.72;;;0.87;68.38
85130;BME280;75492;49.310;20.046;2024-02-14T01:39:42;92204.09;;;0.76;68.26
85130;BME280;75492;49.310;20.046;2024-02-14T01:44:43;92208.59;;;0.75;68.57
85130;BME280;75492;49.310;20.046;2024-02-14T01:49:45;92211.09;;;0.61;70.00
85130;BME280;75492;49.310;20.046;2024-02-14T01:54:47;92195.25;;;0.56;69.73
85130;BME280;75492;49.310;20.046;2024-02-14T01:59:49;92199.09;;;0.74;68.57
85130;BME280;75492;49.310;20.046;2024-02-14T02:04:52;92202.78;;;0.73;69.68
85130;BME280;75492;49.310;20.046;2024-02-14T02:09:55;92204.19;;;0.65;70.20
85130;BME280;75492;49.310;20.046;2024-02-14T02:14:57;92202.56;;;0.69;69.00
85130;BME280;75492;49.310;20.046;2024-02-14T02:19:58;92204.56;;;0.88;68.51
85130;BME280;75492;49.310;20.046;2024-02-14T02:25:01;92204.31;;;0.84;69.48
85130;BME280;75492;49.310;20.046;2024-02-14T02:30:03;92201.28;;;0.67;69.80
85130;BME280;75492;49.310;20.046;2024-02-14T02:35:04;92198.88;;;0.70;69.24
85130;BME280;75492;49.310;20.046;2024-02-14T02:40:08;92191.25;;;0.64;70.78
85130;BME280;75492;49.310;20.046;2024-02-14T02:45:10;92196.78;;;0.67;70.17
85130;BME280;75492;49.310;20.046;2024-02-14T02:50:11;92196.00;;;0.62;70.72
85130;BME280;75492;49.310;20.046;2024-02-14T02:55:14;92192.03;;;0.64;69.11
85130;BME280;75492;49.310;20.046;2024-02-14T03:00:16;92204.72;;;0.62;70.99
85130;BME280;75492;49.310;20.046;2024-02-14T03:05:17;92204.47;;;0.59;70.45
85130;BME280;75492;49.310;20.046;2024-02-14T03:10:20;92207.88;;;0.64;67.98
85130;BME280;75492;49.310;20.046;2024-02-14T03:15:22;92203.88;;;0.72;67.66
85130;BME280;75492;49.310;20.046;2024-02-14T03:20:23;92210.78;;;0.68;68.24
85130;BME280;75492;49.310;20.046;2024-02-14T03:25:26;92204.47;;;0.59;67.10
85130;BME280;75492;49.310;20.046;2024-02-14T03:30:27;92204.47;;;0.64;68.02
85130;BME280;75492;49.310;20.046;2024-02-14T03:35:29;92206.59;;;0.62;67.71
85130;BME280;75492;49.310;20.046;2024-02-14T03:40:32;92208.69;;;0.65;68.04
85130;BME280;75492;49.310;20.046;2024-02-14T03:45:33;92211.63;;;0.58;68.21
85130;BME280;75492;49.310;20.046;2024-02-14T03:50:34;92214.28;;;0.53;68.25
85130;BME280;75492;49.310;20.046;2024-02-14T03:55:37;92218.59;;;0.44;68.68
85130;BME280;75492;49.310;20.046;2024-02-14T04:00:38;92213.13;;;0.30;68.51
85130;BME280;75492;49.310;20.046;2024-02-14T04:05:40;92220.28;;;0.25;70.61
85130;BME280;75492;49.310;20.046;2024-02-14T04:10:42;92220.63;;;0.08;72.64
85130;BME280;75492;49.310;20.046;2024-02-14T04:15:44;92219.81;;;0.07;73.29
85130;BME280;75492;49.310;20.046;2024-02-14T04:20:45;92228.00;;;0.06;72.40
85130;BME280;75492;49.310;20.046;2024-02-14T04:25:48;92222.59;;;-0.29;73.26
85130;BME280;75492;49.310;20.046;2024-02-14T04:30:49;92224.97;;;-0.32;73.17
85130;BME280;75492;49.310;20.046;2024-02-14T04:35:50;92222.66;;;-0.59;75.15
85130;BME280;75492;49.310;20.046;2024-02-14T04:40:54;92234.81;;;-0.68;74.66
85130;BME280;75492;49.310;20.046;2024-02-14T04:45:55;92226.59;;;-0.57;74.34
85130;BME280;75492;49.310;20.046;2024-02-14T04:50:57;92241.69;;;-0.83;74.26
85130;BME280;75492;49.310;20.046;2024-02-14T04:55:59;92240.59;;;-0.97;75.26
85130;BME280;75492;49.310;20.046;2024-02-14T05:01:01;92249.84;;;-0.84;75.77
85130;BME280;75492;49.310;20.046;2024-02-14T05:06:05;92244.31;;;-0.88;75.69
85130;BME280;75492;49.310;20.046;2024-02-14T05:11:10;92252.75;;;-0.96;75.09
85130;BME280;75492;49.310;20.046;2024-02-14T05:16:17;92255.13;;;-1.05;75.09
85130;BME280;75492;49.310;20.046;2024-02-14T05:21:20;92258.28;;;-1.13;74.82
85130;BME280;75492;49.310;20.046;2024-02-14T05:26:23;92259.03;;;-1.28;75.77
85130;BME280;75492;49.310;20.046;2024-02-14T05:31:28;92254.31;;;-1.21;75.54
85130;BME280;75492;49.310;20.046;2024-02-14T05:36:43;92258.53;;;-1.25;74.66
85130;BME280;75492;49.310;20.046;2024-02-14T05:41:45;92267.72;;;-1.37;75.20
85130;BME280;75492;49.310;20.046;2024-02-14T05:46:47;92264.56;;;-1.39;74.74
85130;BME280;75492;49.310;20.046;2024-02-14T05:51:48;92260.59;;;-1.52;75.09
85130;BME280;75492;49.310;20.046;2024-02-14T05:56:51;92269.53;;;-1.58;74.81
85130;BME280;75492;49.310;20.046;2024-02-14T06:01:52;92277.66;;;-1.75;75.78
85130;BME280;75492;49.310;20.046;2024-02-14T06:06:53;92277.38;;;-1.79;75.86
85130;BME280;75492;49.310;20.046;2024-02-14T06:11:56;92277.38;;;-1.74;75.37
85130;BME280;75492;49.310;20.046;2024-02-14T06:16:57;92284.38;;;-2.05;75.63
85130;BME280;75492;49.310;20.046;2024-02-14T06:21:59;92296.00;;;-1.96;76.51
85130;BME280;75492;49.310;20.046;2024-02-14T06:27:01;92283.13;;;-1.87;75.64
85130;BME280;75492;49.310;20.046;2024-02-14T06:32:03;92301.53;;;-1.87;76.58
85130;BME280;75492;49.310;20.046;2024-02-14T06:37:05;92291.84;;;-1.86;75.40
85130;BME280;75492;49.310;20.046;2024-02-14T06:42:07;92288.38;;;-1.92;76.61
85130;BME280;75492;49.310;20.046;2024-02-14T06:47:09;92288.97;;;-1.75;77.20
85130;BME280;75492;49.310;20.046;2024-02-14T06:52:10;92282.41;;;-1.67;76.92
85130;BME280;75492;49.310;20.046;2024-02-14T06:57:13;92281.63;;;-1.62;76.86
85130;BME280;75492;49.310;20.046;2024-02-14T07:02:14;92289.53;;;-1.57;76.25
85130;BME280;75492;49.310;20.046;2024-02-14T07:07:16;92287.19;;;-1.54;76.52
85130;BME280;75492;49.310;20.046;2024-02-14T07:12:18;92293.56;;;-1.39;75.63
85130;BME280;75492;49.310;20.046;2024-02-14T07:17:20;92288.31;;;-1.19;75.24
85130;BME280;75492;49.310;20.046;2024-02-14T07:22:21;92287.03;;;-1.06;76.05
85130;BME280;75492;49.310;20.046;2024-02-14T07:27:24;92293.34;;;-0.97;76.11
85130;BME280;75492;49.310;20.046;2024-02-14T07:32:25;92292.31;;;-0.76;73.91
85130;BME280;75492;49.310;20.046;2024-02-14T07:37:27;92283.34;;;-0.69;73.20
85130;BME280;75492;49.310;20.046;2024-02-14T07:42:30;92286.00;;;-0.69;72.12
85130;BME280;75492;49.310;20.046;2024-02-14T07:47:31;92303.38;;;-0.63;72.80
85130;BME280;75492;49.310;20.046;2024-02-14T07:52:33;92277.78;;;-0.58;72.33
85130;BME280;75492;49.310;20.046;2024-02-14T07:57:35;92292.31;;;-0.55;72.46
85130;BME280;75492;49.310;20.046;2024-02-14T08:02:37;92283.28;;;-0.34;71.57
85130;BME280;75492;49.310;20.046;2024-02-14T08:07:38;92300.19;;;-0.19;70.54
85130;BME280;75492;49.310;20.046;2024-02-14T08:12:41;92305.69;;;-0.11;70.62
85130;BME280;75492;49.310;20.046;2024-02-14T08:17:45;92302.78;;;-0.04;70.09
85130;BME280;75492;49.310;20.046;2024-02-14T08:22:46;92294.84;;;0.01;70.36
85130;BME280;75492;49.310;20.046;2024-02-14T08:27:49;92296.41;;;0.12;68.33
85130;BME280;75492;49.310;20.046;2024-02-14T08:32:55;92292.69;;;0.23;67.18
85130;BME280;75492;49.310;20.046;2024-02-14T08:37:57;92291.06;;;0.22;66.11
85130;BME280;75492;49.310;20.046;2024-02-14T08:43:00;92286.03;;;0.26;67.01
85130;BME280;75492;49.310;20.046;2024-02-14T08:48:04;92286.53;;;0.33;67.39
85130;BME280;75492;49.310;20.046;2024-02-14T08:53:05;92273.03;;;0.45;67.11
85130;BME280;75492;49.310;20.046;2024-02-14T08:58:09;92277.72;;;0.53;65.96
85130;BME280;75492;49.310;20.046;2024-02-14T09:03:10;92273.03;;;0.45;66.82
85130;BME280;75492;49.310;20.046;2024-02-14T09:08:12;92275.91;;;0.54;67.65
85130;BME280;75492;49.310;20.046;2024-02-14T09:13:15;92272.34;;;0.74;68.14
85130;BME280;75492;49.310;20.046;2024-02-14T09:18:16;92283.78;;;0.64;66.47
85130;BME280;75492;49.310;20.046;2024-02-14T09:23:17;92276.03;;;0.78;66.45
85130;BME280;75492;49.310;20.046;2024-02-14T09:28:20;92268.53;;;0.90;67.36
85130;BME280;75492;49.310;20.046;2024-02-14T09:33:22;92274.50;;;1.06;65.80
85130;BME280;75492;49.310;20.046;2024-02-14T09:38:23;92280.03;;;1.14;65.89
85130;BME280;75492;49.310;20.046;2024-02-14T09:43:32;92282.91;;;1.18;65.30
85130;BME280;75492;49.310;20.046;2024-02-14T09:48:37;92290.00;;;1.28;63.86
85130;BME280;75492;49.310;20.046;2024-02-14T09:53:39;92292.41;;;1.24;63.81
85130;BME280;75492;49.310;20.046;2024-02-14T09:58:43;92280.88;;;1.39;62.67
85130;BME280;75492;49.310;20.046;2024-02-14T10:03:45;92287.19;;;1.43;64.36
85130;BME280;75492;49.310;20.046;2024-02-14T10:08:46;92272.50;;;1.61;62.56
85130;BME280;75492;49.310;20.046;2024-02-14T10:13:49;92280.34;;;1.71;62.58
85130;BME280;75492;49.310;20.046;2024-02-14T10:18:51;92279.25;;;1.77;62.52
85130;BME280;75492;49.310;20.046;2024-02-14T10:23:52;92277.81;;;1.90;63.05
85130;BME280;75492;49.310;20.046;2024-02-14T10:28:56;92269.19;;;2.03;59.58
85130;BME280;75492;49.310;20.046;2024-02-14T10:33:58;92262.75;;;2.09;62.08
85130;BME280;75492;49.310;20.046;2024-02-14T10:39:01;92260.63;;;2.11;59.82
85130;BME280;75492;49.310;20.046;2024-02-14T10:44:04;92263.38;;;2.25;60.63
85130;BME280;75492;49.310;20.046;2024-02-14T10:49:06;92247.78;;;2.43;60.25
85130;BME280;75492;49.310;20.046;2024-02-14T10:54:10;92249.81;;;2.51;60.22
85130;BME280;75492;49.310;20.046;2024-02-14T10:59:16;92245.28;;;2.51;58.65
85130;BME280;75492;49.310;20.046;2024-02-14T11:04:18;92246.47;;;2.64;59.42
85130;BME280;75492;49.310;20.046;2024-02-14T11:09:20;92245.69;;;2.64;60.94
85130;BME280;75492;49.310;20.046;2024-02-14T11:14:23;92250.06;;;2.73;62.29
85130;BME280;75492;49.310;20.046;2024-02-14T11:19:31;92246.59;;;2.92;61.69
85130;BME280;75492;49.310;20.046;2024-02-14T11:24:36;92240.28;;;3.06;60.74
85130;BME280;75492;49.310;20.046;2024-02-14T11:29:41;92228.88;;;3.25;59.61
85130;BME280;75492;49.310;20.046;2024-02-14T11:34:55;92225.28;;;3.16;61.75
85130;BME280;75492;49.310;20.046;2024-02-14T11:39:56;92231.28;;;3.40;59.08
85130;BME280;75492;49.310;20.046;2024-02-14T11:45:00;92225.78;;;3.37;56.03
85130;BME280;75492;49.310;20.046;2024-02-14T11:50:02;92222.13;;;3.46;51.75
85130;BME280;75492;49.310;20.046;2024-02-14T11:55:04;92216.38;;;3.58;50.24
85130;BME280;75492;49.310;20.046;2024-02-14T12:00:08;92206.16;;;3.65;49.70
85130;BME280;75492;49.310;20.046;2024-02-14T12:05:10;92205.31;;;3.84;47.22
85130;BME280;75492;49.310;20.046;2024-02-14T12:10:11;92209.03;;;3.83;45.20
85130;BME280;75492;49.310;20.046;2024-02-14T12:15:14;92204.28;;;3.80;45.35
85130;BME280;75492;49.310;20.046;2024-02-14T12:20:15;92208.25;;;3.96;45.71
85130;BME280;75492;49.310;20.046;2024-02-14T12:25:17;92200.47;;;3.86;45.98
85130;BME280;75492;49.310;20.046;2024-02-14T12:30:19;92206.69;;;3.95;44.54
85130;BME280;75492;49.310;20.046;2024-02-14T12:35:22;92202.06;;;4.00;46.14
85130;BME280;75492;49.310;20.046;2024-02-14T12:40:24;92205.41;;;4.06;45.50
85130;BME280;75492;49.310;20.046;2024-02-14T12:45:27;92197.63;;;3.96;46.02
85130;BME280;75492;49.310;20.046;2024-02-14T12:50:28;92189.63;;;4.10;46.00
85130;BME280;75492;49.310;20.046;2024-02-14T12:55:29;92202.66;;;4.25;45.01
85130;BME280;75492;49.310;20.046;2024-02-14T13:00:33;92188.56;;;4.11;44.50
85130;BME280;75492;49.310;20.046;2024-02-14T13:05:34;92211.41;;;4.12;44.32
85130;BME280;75492;49.310;20.046;2024-02-14T13:10:35;92201.28;;;4.14;41.91
85130;BME280;75492;49.310;20.046;2024-02-14T13:15:38;92206.69;;;4.09;42.98
85130;BME280;75492;49.310;20.046;2024-02-14T13:20:39;92205.81;;;4.13;40.96
85130;BME280;75492;49.310;20.046;2024-02-14T13:25:41;92205.69;;;4.18;42.03
85130;BME280;75492;49.310;20.046;2024-02-14T13:30:49;92200.69;;;4.17;39.96
85130;BME280;75492;49.310;20.046;2024-02-14T13:35:52;92200.59;;;4.08;42.39
85130;BME280;75492;49.310;20.046;2024-02-14T13:40:59;92204.59;;;4.19;41.51
85130;BME280;75492;49.310;20.046;2024-02-14T13:46:02;92201.75;;;4.16;39.81
85130;BME280;75492;49.310;20.046;2024-02-14T13:51:03;92207.97;;;4.25;40.48
85130;BME280;75492;49.310;20.046;2024-02-14T13:56:05;92213.97;;;4.03;43.89
85130;BME280;75492;49.310;20.046;2024-02-14T14:01:10;92206.09;;;4.12;45.70
85130;BME280;75492;49.310;20.046;2024-02-14T14:06:13;92211.22;;;3.94;46.01
85130;BME280;75492;49.310;20.046;2024-02-14T14:11:15;92209.41;;;3.76;46.24
85130;BME280;75492;49.310;20.046;2024-02-14T14:16:17;92212.47;;;3.83;45.33
85130;BME280;75492;49.310;20.046;2024-02-14T14:21:20;92205.78;;;3.86;41.53
85130;BME280;75492;49.310;20.046;2024-02-14T14:26:24;92212.06;;;3.76;39.87
85130;BME280;75492;49.310;20.046;2024-02-14T14:31:30;92211.88;;;3.72;40.89
85130;BME280;75492;49.310;20.046;2024-02-14T14:36:37;92223.66;;;3.66;43.27
85130;BME280;75492;49.310;20.046;2024-02-14T14:41:41;92225.31;;;3.62;43.64
85130;BME280;75492;49.310;20.046;2024-02-14T14:46:43;92235.69;;;3.64;43.60
85130;BME280;75492;49.310;20.046;2024-02-14T14:51:45;92234.09;;;3.63;46.56
85130;BME280;75492;49.310;20.046;2024-02-14T14:56:47;92238.59;;;3.62;48.73
85130;BME280;75492;49.310;20.046;2024-02-14T15:01:55;92228.94;;;3.52;50.20
85130;BME280;75492;49.310;20.046;2024-02-14T15:06:56;92228.34;;;3.56;51.16
85130;BME280;75492;49.310;20.046;2024-02-14T15:11:58;92231.69;;;3.47;52.19
85130;BME280;75492;49.310;20.046;2024-02-14T15:17:03;92226.16;;;3.30;52.08
85130;BME280;75492;49.310;20.046;2024-02-14T15:22:08;92245.78;;;3.29;53.16
85130;BME280;75492;49.310;20.046;2024-02-14T15:27:10;92234.19;;;3.25;54.21
85130;BME280;75492;49.310;20.046;2024-02-14T15:32:15;92236.78;;;3.11;56.53
85130;BME280;75492;49.310;20.046;2024-02-14T15:37:20;92243.94;;;2.73;61.40
85130;BME280;75492;49.310;20.046;2024-02-14T15:42:23;92234.25;;;2.44;62.88
85130;BME280;75492;49.310;20.046;2024-02-14T15:47:30;92235.63;;;2.18;64.99
85130;BME280;75492;49.310;20.046;2024-02-14T15:52:36;92243.63;;;1.88;64.06
85130;BME280;75492;49.310;20.046;2024-02-14T15:57:40;92246.69;;;1.48;64.51
85130;BME280;75492;49.310;20.046;2024-02-14T16:02:42;92240.13;;;1.40;65.23
85130;BME280;75492;49.310;20.046;2024-02-14T16:07:44;92245.78;;;0.94;67.37
85130;BME280;75492;49.310;20.046;2024-02-14T16:12:47;92258.31;;;0.78;68.12
85130;BME280;75492;49.310;20.046;2024-02-14T16:17:50;92251.22;;;0.68;67.66
85130;BME280;75492;49.310;20.046;2024-02-14T16:22:51;92257.94;;;0.45;68.17
85130;BME280;75492;49.310;20.046;2024-02-14T16:27:53;92260.09;;;0.38;69.98
85130;BME280;75492;49.310;20.046;2024-02-14T16:32:56;92267.22;;;0.43;69.62
85130;BME280;75492;49.310;20.046;2024-02-14T16:37:57;92266.72;;;0.36;69.55
85130;BME280;75492;49.310;20.046;2024-02-14T16:42:59;92271.59;;;0.08;70.33
85130;BME280;75492;49.310;20.046;2024-02-14T16:48:03;92275.75;;;0.25;70.36
85130;BME280;75492;49.310;20.046;2024-02-14T16:53:06;92278.91;;;0.27;71.12
85130;BME280;75492;49.310;20.046;2024-02-14T16:58:07;92277.13;;;0.07;71.29
85130;BME280;75492;49.310;20.046;2024-02-14T17:03:10;92278.41;;;0.19;70.88
85130;BME280;75492;49.310;20.046;2024-02-14T17:08:12;92285.22;;;0.36;70.89
85130;BME280;75492;49.310;20.046;2024-02-14T17:13:13;92287.84;;;0.41;71.97
85130;BME280;75492;49.310;20.046;2024-02-14T17:18:16;92285.72;;;0.43;71.88
85130;BME280;75492;49.310;20.046;2024-02-14T17:23:17;92283.44;;;0.16;73.03
85130;BME280;75492;49.310;20.046;2024-02-14T17:28:18;92283.97;;;0.13;73.35
85130;BME280;75492;49.310;20.046;2024-02-14T17:33:21;92288.69;;;0.26;73.38
85130;BME280;75492;49.310;20.046;2024-02-14T17:38:23;92287.69;;;0.17;73.85
85130;BME280;75492;49.310;20.046;2024-02-14T17:43:24;92295.56;;;0.27;73.65
85130;BME280;75492;49.310;20.046;2024-02-14T17:48:27;92297.97;;;0.18;73.35
85130;BME280;75492;49.310;20.046;2024-02-14T17:53:28;92298.00;;;0.03;74.11
85130;BME280;75492;49.310;20.046;2024-02-14T17:58:29;92300.94;;;0.02;73.63
85130;BME280;75492;49.310;20.046;2024-02-14T18:03:33;92305.16;;;-0.08;74.47
85130;BME280;75492;49.310;20.046;2024-02-14T18:08:34;92312.31;;;-0.13;74.57
85130;BME280;75492;49.310;20.046;2024-02-14T18:13:35;92315.50;;;-0.21;74.73
85130;BME280;75492;49.310;20.046;2024-02-14T18:18:38;92309.69;;;-0.24;74.80
85130;BME280;75492;49.310;20.046;2024-02-14T18:23:40;92311.28;;;-0.28;74.75
85130;BME280;75492;49.310;20.046;2024-02-14T18:28:41;92310.50;;;-0.23;74.32
85130;BME280;75492;49.310;20.046;2024-02-14T18:33:44;92315.22;;;-0.15;74.53
85130;BME280;75492;49.310;20.046;2024-02-14T18:38:45;92301.50;;;-0.27;74.54
85130;BME280;75492;49.310;20.046;2024-02-14T18:43:47;92301.00;;;-0.29;74.28
85130;BME280;75492;49.310;20.046;2024-02-14T18:48:49;92297.59;;;-0.40;73.85
85130;BME280;75492;49.310;20.046;2024-02-14T18:53:51;92295.72;;;-0.39;73.73
85130;BME280;75492;49.310;20.046;2024-02-14T18:58:53;92293.63;;;-0.53;74.15
85130;BME280;75492;49.310;20.046;2024-02-14T19:03:56;92292.81;;;-0.38;74.19
85130;BME280;75492;49.310;20.046;2024-02-14T19:08:57;92287.53;;;-0.38;74.50
85130;BME280;75492;49.310;20.046;2024-02-14T19:13:58;92287.28;;;-0.52;74.33
85130;BME280;75492;49.310;20.046;2024-02-14T19:19:01;92294.66;;;-0.23;74.71
85130;BME280;75492;49.310;20.046;2024-02-14T19:24:03;92296.00;;;-0.36;75.75
85130;BME280;75492;49.310;20.046;2024-02-14T19:29:04;92300.47;;;-0.31;77.24
85130;BME280;75492;49.310;20.046;2024-02-14T19:34:07;92290.63;;;-0.10;76.06
85130;BME280;75492;49.310;20.046;2024-02-14T19:39:08;92287.19;;;-0.01;76.00
85130;BME280;75492;49.310;20.046;2024-02-14T19:44:10;92285.81;;;0.17;74.78
85130;BME280;75492;49.310;20.046;2024-02-14T19:49:12;92288.00;;;-0.05;75.77
85130;BME280;75492;49.310;20.046;2024-02-14T19:54:16;92293.25;;;0.10;76.73
85130;BME280;75492;49.310;20.046;2024-02-14T19:59:19;92303.59;;;-0.24;77.79
85130;BME280;75492;49.310;20.046;2024-02-14T20:04:23;92300.91;;;0.17;76.49
85130;BME280;75492;49.310;20.046;2024-02-14T20:09:24;92306.84;;;0.43;74.24
85130;BME280;75492;49.310;20.046;2024-02-14T20:14:25;92312.47;;;0.31;76.28
85130;BME280;75492;49.310;20.046;2024-02-14T20:19:28;92302.69;;;0.27;76.97
85130;BME280;75492;49.310;20.046;2024-02-14T20:24:30;92304.72;;;0.50;76.05
85130;BME280;75492;49.310;20.046;2024-02-14T20:29:32;92309.97;;;0.55;75.85
85130;BME280;75492;49.310;20.046;2024-02-14T20:34:35;92307.38;;;0.40;75.16
85130;BME280;75492;49.310;20.046;2024-02-14T20:39:37;92308.16;;;0.51;75.47
85130;BME280;75492;49.310;20.046;2024-02-14T20:44:39;92306.03;;;0.53;76.08
85130;BME280;75492;49.310;20.046;2024-02-14T20:49:42;92311.06;;;0.49;75.88
85130;BME280;75492;49.310;20.046;2024-02-14T20:54:44;92303.06;;;0.64;75.63
85130;BME280;75492;49.310;20.046;2024-02-14T20:59:46;92308.84;;;0.72;75.53
85130;BME280;75492;49.310;20.046;2024-02-14T21:04:49;92299.84;;;0.73;76.73
85130;BME280;75492;49.310;20.046;2024-02-14T21:09:51;92299.78;;;0.88;76.21
85130;BME280;75492;49.310;20.046;2024-02-14T21:14:55;92292.69;;;0.78;76.35
85130;BME280;75492;49.310;20.046;2024-02-14T21:19:58;92289.06;;;0.59;77.63
85130;BME280;75492;49.310;20.046;2024-02-14T21:25:00;92292.16;;;0.76;75.67
85130;BME280;75492;49.310;20.046;2024-02-14T21:30:02;92294.31;;;0.69;75.09
85130;BME280;75492;49.310;20.046;2024-02-14T21:35:05;92290.59;;;0.75;74.79
85130;BME280;75492;49.310;20.046;2024-02-14T21:40:08;92280.19;;;0.89;75.10
85130;BME280;75492;49.310;20.046;2024-02-14T21:45:09;92276.97;;;0.97;74.83
85130;BME280;75492;49.310;20.046;2024-02-14T21:50:12;92281.75;;;0.90;74.70
85130;BME280;75492;49.310;20.046;2024-02-14T21:55:14;92282.41;;;0.66;76.24
85130;BME280;75492;49.310;20.046;2024-02-14T22:00:16;92278.50;;;0.59;75.80
85130;BME280;75492;49.310;20.046;2024-02-14T22:05:19;92285.47;;;0.89;74.79
85130;BME280;75492;49.310;20.046;2024-02-14T22:10:21;92280.22;;;0.84;75.33
85130;BME280;75492;49.310;20.046;2024-02-14T22:15:22;92284.22;;;0.81;75.72
85130;BME280;75492;49.310;20.046;2024-02-14T22:20:25;92276.03;;;0.78;76.07
85130;BME280;75492;49.310;20.046;2024-02-14T22:25:26;92283.59;;;0.94;76.35
85130;BME280;75492;49.310;20.046;2024-02-14T22:30:28;92288.53;;;1.06;76.27
85130;BME280;75492;49.310;20.046;2024-02-14T22:35:31;92288.22;;;1.13;77.38
85130;BME280;75492;49.310;20.046;2024-02-14T22:40:32;92292.25;;;1.05;78.10
85130;BME280;75492;49.310;20.046;2024-02-14T22:45:33;92285.69;;;0.98;76.64
85130;BME280;75492;49.310;20.046;2024-02-14T22:50:36;92291.63;;;1.18;75.26
85130;BME280;75492;49.310;20.046;2024-02-14T22:55:37;92291.59;;;1.24;76.49
85130;BME280;75492;49.310;20.046;2024-02-14T23:00:39;92298.50;;;1.20;77.61
85130;BME280;75492;49.310;20.046;2024-02-14T23:05:42;92303.09;;;1.43;77.26
85130;BME280;75492;49.310;20.046;2024-02-14T23:10:43;92300.72;;;1.41;78.44
85130;BME280;75492;49.310;20.046;2024-02-14T23:15:44;92313.03;;;1.56;78.48
85130;BME280;75492;49.310;20.046;2024-02-14T23:20:47;92311.47;;;1.55;79.10
85130;BME280;75492;49.310;20.046;2024-02-14T23:25:48;92307.34;;;1.44;79.18
85130;BME280;75492;49.310;20.046;2024-02-14T23:30:51;92312.81;;;1.53;78.91
85130;BME280;75492;49.310;20.046;2024-02-14T23:35:57;92310.13;;;1.58;79.08
85130;BME280;75492;49.310;20.046;2024-02-14T23:41:00;92316.25;;;1.53;78.65
85130;BME280;75492;49.310;20.046;2024-02-14T23:46:02;92309.50;;;1.37;77.24
85130;BME280;75492;49.310;20.046;2024-02-14T23:51:05;92300.97;;;1.45;79.40
85130;BME280;75492;49.310;20.046;2024-02-14T23:56:06;92305.41;;;1.50;79.06
